createdAt,value
2023-02-12T00:01:34.874Z,15.63
2023-02-12T00:04:03.169Z,15.15
2023-02-12T00:06:31.539Z,17.42
2023-02-12T00:09:00.482Z,14.98
2023-02-12T00:11:30.792Z,15.95
2023-02-12T00:13:59.781Z,15.93
2023-02-12T00:16:30.091Z,15.52
2023-02-12T00:18:59.440Z,15.15
2023-02-12T00:21:28.492Z,16.13
2023-02-12T00:23:57.059Z,15.07
2023-02-12T00:26:26.339Z,15.88
2023-02-12T00:28:56.396Z,15.93
2023-02-12T00:31:26.206Z,17.48
2023-02-12T00:33:58.038Z,17.25
2023-02-12T00:36:28.376Z,15.98
2023-02-12T00:38:57.727Z,16.55
2023-02-12T00:41:27.665Z,16.05
2023-02-12T00:43:57.629Z,16.27
2023-02-12T00:46:26.061Z,16.23
2023-02-12T00:48:54.309Z,16.73
2023-02-12T00:51:22.620Z,16.98
2023-02-12T00:53:50.912Z,17.25
2023-02-12T00:56:19.182Z,16.77
2023-02-12T00:58:50.548Z,17.88
2023-02-12T01:01:20.620Z,17.92
2023-02-12T01:03:49.316Z,17.42
2023-02-12T01:06:17.843Z,17.58
2023-02-12T01:08:51.124Z,16.50
2023-02-12T01:11:19.954Z,16.30
2023-02-12T01:13:48.500Z,16.63
2023-02-12T01:16:21.295Z,17.38
2023-02-12T01:18:53.691Z,16.75
2023-02-12T01:21:25.583Z,16.80
2023-02-12T01:23:53.983Z,15.82
2023-02-12T01:26:23.541Z,15.35
2023-02-12T01:28:53.893Z,13.00
2023-02-12T01:31:25.553Z,13.30
2023-02-12T01:33:55.456Z,13.70
2023-02-12T01:36:23.993Z,12.88
2023-02-12T01:38:52.486Z,13.60
2023-02-12T01:41:23.381Z,13.38
2023-02-12T01:44:12.884Z,13.32
2023-02-12T01:46:43.009Z,13.95
2023-02-12T01:49:15.413Z,13.90
2023-02-12T01:51:46.508Z,14.68
2023-02-12T01:54:17.380Z,12.82
2023-02-12T01:56:46.438Z,13.38
2023-02-12T01:59:14.768Z,13.45
2023-02-12T02:01:44.753Z,12.80
2023-02-12T02:04:16.419Z,12.63
2023-02-12T02:06:51.476Z,12.88
2023-02-12T02:09:21.119Z,13.60
2023-02-12T02:12:06.956Z,12.75
2023-02-12T02:14:35.696Z,12.20
2023-02-12T02:17:26.080Z,12.98
2023-02-12T02:20:31.040Z,12.73
2023-02-12T02:23:11.628Z,12.90
2023-02-12T02:26:04.596Z,12.82
2023-02-12T02:28:56.951Z,13.48
2023-02-12T02:31:31.939Z,13.38
2023-02-12T02:34:09.766Z,12.18
2023-02-12T02:36:59.243Z,12.50
2023-02-12T02:39:35.819Z,12.18
2023-02-12T02:42:11.295Z,11.77
2023-02-12T02:44:44.950Z,12.40
2023-02-12T02:47:16.130Z,12.88
2023-02-12T02:49:49.306Z,12.57
2023-02-12T02:52:21.415Z,13.10
2023-02-12T02:54:54.032Z,13.45
2023-02-12T02:57:28.589Z,12.85
2023-02-12T03:00:04.028Z,13.27
2023-02-12T03:02:37.917Z,13.18
2023-02-12T03:05:10.514Z,13.35
2023-02-12T03:07:42.820Z,13.40
2023-02-12T03:10:17.107Z,12.98
2023-02-12T03:12:49.406Z,13.00
2023-02-12T03:15:24.918Z,13.05
2023-02-12T03:17:54.866Z,13.48
2023-02-12T03:20:25.871Z,13.55
2023-02-12T03:22:59.102Z,13.63
2023-02-12T03:25:34.633Z,12.57
2023-02-12T03:28:08.195Z,13.35
2023-02-12T03:30:44.052Z,13.07
2023-02-12T03:33:22.067Z,12.63
2023-02-12T03:35:57.895Z,13.45
2023-02-12T03:38:34.692Z,12.88
2023-02-12T03:41:10.094Z,13.90
2023-02-12T03:43:50.345Z,13.45
2023-02-12T03:46:23.661Z,12.85
2023-02-12T03:49:01.683Z,12.27
2023-02-12T03:51:35.856Z,13.02
2023-02-12T03:54:07.036Z,13.10
2023-02-12T03:56:41.780Z,13.40
2023-02-12T03:59:10.208Z,12.68
2023-02-12T04:01:38.725Z,12.73
2023-02-12T04:04:09.923Z,12.88
2023-02-12T04:06:38.951Z,13.55
2023-02-12T04:09:10.580Z,12.63
2023-02-12T04:14:23.886Z,12.95
2023-02-12T04:16:57.750Z,12.85
2023-02-12T04:19:35.854Z,12.75
2023-02-12T04:22:19.557Z,12.68
2023-02-12T04:24:53.606Z,12.85
2023-02-12T04:27:25.128Z,12.38
2023-02-12T04:32:31.763Z,12.52
2023-02-12T04:35:06.733Z,12.60
2023-02-12T04:37:40.148Z,12.63
2023-02-12T04:40:12.868Z,13.20
2023-02-12T04:42:45.151Z,13.23
2023-02-12T04:45:15.237Z,13.65
2023-02-12T04:47:43.560Z,12.27
2023-02-12T04:50:14.187Z,12.93
2023-02-12T04:52:42.502Z,12.30
2023-02-12T04:55:10.815Z,12.57
2023-02-12T04:57:39.012Z,13.45
2023-02-12T05:00:09.095Z,13.77
2023-02-12T05:02:37.766Z,13.68
2023-02-12T05:05:07.182Z,13.48
2023-02-12T05:07:36.854Z,14.05
2023-02-12T05:10:05.729Z,13.88
2023-02-12T05:12:36.339Z,13.85
2023-02-12T05:15:04.721Z,12.80
2023-02-12T05:17:33.032Z,13.48
2023-02-12T05:20:01.423Z,13.25
2023-02-12T05:22:29.738Z,12.40
2023-02-12T05:24:59.424Z,13.07
2023-02-12T05:27:27.783Z,13.23
2023-02-12T05:29:56.878Z,12.85
2023-02-12T05:32:25.460Z,13.60
2023-02-12T05:34:53.671Z,13.20
2023-02-12T05:37:21.968Z,13.38
2023-02-12T05:39:51.209Z,13.95
2023-02-12T05:42:20.736Z,13.95
2023-02-12T05:44:48.982Z,13.23
2023-02-12T05:47:17.232Z,14.27
2023-02-12T05:49:45.435Z,13.20
2023-02-12T05:52:13.655Z,12.50
2023-02-12T05:54:41.948Z,13.50
2023-02-12T05:57:10.263Z,14.13
2023-02-12T05:59:40.416Z,13.05
2023-02-12T06:02:08.610Z,12.60
2023-02-12T06:04:36.835Z,13.55
2023-02-12T06:07:05.167Z,13.35
2023-02-12T06:09:33.425Z,13.60
2023-02-12T06:12:02.018Z,13.02
2023-02-12T06:14:32.033Z,14.18
2023-02-12T06:17:01.754Z,13.85
2023-02-12T06:19:29.986Z,14.23
2023-02-12T06:21:58.479Z,13.70
2023-02-12T06:24:26.994Z,13.27
2023-02-12T06:26:55.484Z,13.57
2023-02-12T06:29:24.214Z,13.80
2023-02-12T06:31:52.616Z,13.75
2023-02-12T06:34:22.332Z,13.23
2023-02-12T06:36:50.572Z,13.68
2023-02-12T06:39:19.489Z,13.18
2023-02-12T06:41:47.756Z,14.32
2023-02-12T06:44:16.119Z,14.43
2023-02-12T06:46:44.558Z,15.48
2023-02-12T06:49:14.304Z,15.60
2023-02-12T06:51:44.121Z,15.05
2023-02-12T06:54:15.333Z,15.88
2023-02-12T06:56:43.776Z,15.68
2023-02-12T06:59:15.473Z,15.77
2023-02-12T07:01:44.350Z,14.68
2023-02-12T07:04:13.027Z,13.93
2023-02-12T07:06:41.766Z,14.52
2023-02-12T07:09:11.386Z,14.23
2023-02-12T07:11:39.787Z,13.68
2023-02-12T07:14:08.369Z,13.55
2023-02-12T07:16:36.742Z,13.32
2023-02-12T07:19:05.110Z,13.63
2023-02-12T07:21:33.642Z,13.75
2023-02-12T07:24:04.854Z,13.68
2023-02-12T07:26:34.523Z,12.73
2023-02-12T07:29:02.768Z,13.48
2023-02-12T07:31:31.437Z,13.68
2023-02-12T07:34:01.590Z,13.45
2023-02-12T07:36:31.371Z,13.05
2023-02-12T07:39:01.555Z,12.90
2023-02-12T07:41:31.549Z,14.15
2023-02-12T07:44:03.720Z,14.85
2023-02-12T07:46:34.337Z,13.07
2023-02-12T07:49:06.043Z,14.67
2023-02-12T07:51:34.905Z,14.57
2023-02-12T07:54:03.801Z,14.73
2023-02-12T07:56:35.341Z,14.88
2023-02-12T08:01:36.314Z,14.70
2023-02-12T08:04:06.862Z,14.93
2023-02-12T08:06:37.567Z,14.45
2023-02-12T08:09:09.899Z,14.33
2023-02-12T08:11:39.508Z,14.48
2023-02-12T08:14:09.639Z,14.82
2023-02-12T08:16:39.400Z,15.82
2023-02-12T08:19:17.928Z,14.52
2023-02-12T08:21:51.758Z,13.48
2023-02-12T08:24:22.014Z,14.77
2023-02-12T08:26:50.827Z,14.40
2023-02-12T08:29:24.191Z,15.85
2023-02-12T08:31:57.229Z,17.15
2023-02-12T08:34:27.603Z,17.15
2023-02-12T08:36:56.746Z,18.50
2023-02-12T08:39:26.892Z,19.42
2023-02-12T08:41:56.182Z,19.63
2023-02-12T08:44:25.929Z,19.08
2023-02-12T08:46:55.811Z,19.45
2023-02-12T08:49:26.570Z,20.08
2023-02-12T08:51:56.629Z,19.52
2023-02-12T08:54:26.762Z,19.67
2023-02-12T08:56:57.794Z,19.92
2023-02-12T08:59:27.777Z,18.90
2023-02-12T09:01:56.344Z,21.20
2023-02-12T09:04:27.054Z,19.50
2023-02-12T09:06:55.958Z,19.43
2023-02-12T09:09:24.434Z,26.25
2023-02-12T09:11:52.851Z,25.08
2023-02-12T09:14:26.402Z,22.55
2023-02-12T09:16:58.274Z,21.85
2023-02-12T09:19:27.040Z,21.20
2023-02-12T09:21:57.187Z,20.65
2023-02-12T09:24:27.604Z,20.30
2023-02-12T09:26:56.429Z,19.97
2023-02-12T09:29:25.048Z,20.00
2023-02-12T09:31:53.706Z,20.55
2023-02-12T09:34:23.558Z,19.35
2023-02-12T09:36:51.924Z,18.25
2023-02-12T09:39:20.210Z,18.25
2023-02-12T09:42:12.014Z,18.65
2023-02-12T09:47:18.450Z,17.30
2023-02-12T09:50:07.047Z,17.83
2023-02-12T09:52:35.916Z,17.50
2023-02-12T09:55:04.484Z,17.90
2023-02-12T09:57:35.775Z,16.42
2023-02-12T10:00:08.384Z,16.52
2023-02-12T10:02:37.850Z,14.55
2023-02-12T10:05:15.935Z,14.48
2023-02-12T10:08:03.964Z,13.35
2023-02-12T10:10:46.482Z,10.73
2023-02-12T10:13:26.095Z,8.18
2023-02-12T10:16:01.512Z,7.63
2023-02-12T10:18:49.768Z,7.47
2023-02-12T10:21:34.885Z,6.28
2023-02-12T10:24:28.491Z,5.90
2023-02-12T10:27:01.956Z,4.53
2023-02-12T10:29:34.992Z,4.38
2023-02-12T10:32:08.063Z,4.60
2023-02-12T10:34:38.068Z,3.63
2023-02-12T10:37:19.623Z,3.58
2023-02-12T10:39:53.122Z,3.40
2023-02-12T10:42:26.511Z,3.50
2023-02-12T10:44:54.751Z,3.70
2023-02-12T10:47:26.422Z,3.33
2023-02-12T10:49:59.305Z,2.90
2023-02-12T10:52:40.676Z,3.40
2023-02-12T10:55:27.364Z,3.50
2023-02-12T10:57:56.522Z,3.63
2023-02-12T11:00:29.984Z,3.40
2023-02-12T11:03:17.536Z,3.88
2023-02-12T11:05:47.618Z,3.70
2023-02-12T11:08:32.284Z,4.03
2023-02-12T11:11:10.885Z,4.07
2023-02-12T11:13:41.516Z,4.15
2023-02-12T11:16:10.491Z,4.28
2023-02-12T11:18:39.730Z,4.10
2023-02-12T11:21:09.537Z,4.55
2023-02-12T11:23:41.502Z,4.97
2023-02-12T11:26:26.984Z,5.20
2023-02-12T11:28:58.035Z,5.60
2023-02-12T11:31:28.086Z,5.18
2023-02-12T11:34:19.719Z,4.90
2023-02-12T11:36:50.021Z,4.47
2023-02-12T11:39:23.001Z,4.45
2023-02-12T11:41:55.232Z,3.90
2023-02-12T11:44:27.393Z,3.60
2023-02-12T11:46:58.511Z,3.55
2023-02-12T11:49:30.916Z,2.53
2023-02-12T11:52:01.752Z,2.30
2023-02-12T11:54:37.951Z,1.80
2023-02-12T11:57:06.195Z,1.90
2023-02-12T11:59:37.876Z,2.13
2023-02-12T12:04:47.029Z,1.75
2023-02-12T12:07:20.524Z,1.48
2023-02-12T12:09:57.068Z,1.80
2023-02-12T12:12:32.567Z,1.70
2023-02-12T12:15:21.944Z,1.58
2023-02-12T12:18:13.342Z,1.60
2023-02-12T12:20:48.302Z,1.77
2023-02-12T12:23:19.815Z,1.48
2023-02-12T12:25:52.117Z,1.85
2023-02-12T12:28:31.655Z,1.85
2023-02-12T12:31:09.175Z,2.03
2023-02-12T12:33:44.421Z,1.70
2023-02-12T12:36:39.560Z,1.52
2023-02-12T12:39:18.398Z,1.63
2023-02-12T12:42:15.042Z,2.42
2023-02-12T12:44:57.595Z,1.77
2023-02-12T12:47:34.889Z,1.98
2023-02-12T12:50:23.271Z,1.98
2023-02-12T12:53:15.907Z,1.83
2023-02-12T12:56:05.892Z,2.15
2023-02-12T12:58:48.299Z,1.80
2023-02-12T13:01:55.457Z,1.77
2023-02-12T13:04:38.589Z,1.58
2023-02-12T13:07:20.456Z,1.80
2023-02-12T13:09:59.617Z,1.70
2023-02-12T13:12:47.644Z,1.83
2023-02-12T13:15:25.722Z,2.25
2023-02-12T13:18:00.601Z,2.58
2023-02-12T13:20:37.977Z,2.58
2023-02-12T13:23:15.787Z,2.70
2023-02-12T13:25:54.396Z,3.60
2023-02-12T13:28:30.587Z,3.45
2023-02-12T13:31:03.682Z,3.97
2023-02-12T13:33:42.619Z,4.38
2023-02-12T13:36:13.794Z,3.85
2023-02-12T13:38:47.941Z,4.43
2023-02-12T13:41:19.099Z,4.22
2023-02-12T13:44:05.841Z,3.90
2023-02-12T13:46:45.757Z,3.83
2023-02-12T13:49:24.588Z,4.40
2023-02-12T13:52:00.402Z,4.32
2023-02-12T13:54:42.042Z,4.32
2023-02-12T13:59:46.234Z,4.60
2023-02-12T14:02:44.381Z,4.88
2023-02-12T14:05:34.081Z,4.72
2023-02-12T14:08:05.674Z,4.80
2023-02-12T14:13:22.285Z,4.60
2023-02-12T14:15:52.547Z,5.03
2023-02-12T14:18:34.866Z,5.53
2023-02-12T14:21:39.632Z,5.30
2023-02-12T14:24:53.341Z,5.70
2023-02-12T14:27:29.060Z,5.65
2023-02-12T14:30:19.536Z,6.43
2023-02-12T14:33:25.616Z,6.38
2023-02-12T14:36:21.355Z,6.00
2023-02-12T14:39:01.355Z,5.90
2023-02-12T14:41:37.703Z,5.50
2023-02-12T14:44:46.021Z,5.93
2023-02-12T14:47:31.202Z,5.70
2023-02-12T14:50:04.298Z,5.47
2023-02-12T14:52:39.559Z,5.82
2023-02-12T14:55:19.635Z,5.68
2023-02-12T14:57:48.068Z,5.63
2023-02-12T15:00:27.891Z,6.22
2023-02-12T15:03:00.479Z,6.00
2023-02-12T15:05:32.485Z,5.50
2023-02-12T15:08:07.952Z,6.00
2023-02-12T15:10:41.055Z,6.57
2023-02-12T15:13:19.933Z,5.93
2023-02-12T15:15:53.619Z,6.20
2023-02-12T15:18:28.590Z,6.65
2023-02-12T15:21:02.400Z,6.70
2023-02-12T15:23:39.194Z,6.68
2023-02-12T15:26:13.440Z,6.57
2023-02-12T15:28:42.570Z,6.30
2023-02-12T15:31:11.835Z,6.43
2023-02-12T15:33:45.806Z,6.15
2023-02-12T15:36:19.103Z,6.30
2023-02-12T15:38:52.369Z,5.90
2023-02-12T15:41:38.932Z,6.38
2023-02-12T15:44:28.084Z,6.47
2023-02-12T15:47:02.473Z,6.40
2023-02-12T15:49:34.922Z,136.02
2023-02-12T15:52:06.436Z,55.25
2023-02-12T15:57:11.608Z,126.43
2023-02-12T15:59:41.294Z,47.63
2023-02-12T16:02:20.526Z,46.67
2023-02-12T16:04:49.780Z,40.33
2023-02-12T16:07:19.230Z,36.38
2023-02-12T16:09:51.776Z,25.90
2023-02-12T16:12:24.632Z,70.40
2023-02-12T16:14:54.818Z,41.70
2023-02-12T16:17:28.233Z,53.10
2023-02-12T16:19:58.915Z,45.58
2023-02-12T16:22:37.408Z,89.43
2023-02-12T16:25:17.465Z,39.17
2023-02-12T16:27:57.283Z,28.55
2023-02-12T16:30:29.630Z,18.58
2023-02-12T16:32:58.967Z,16.98
2023-02-12T16:35:30.588Z,17.17
2023-02-12T16:38:41.386Z,26.98
2023-02-12T16:41:24.705Z,46.70
2023-02-12T16:44:23.214Z,44.70
2023-02-12T16:46:54.239Z,61.25
2023-02-12T16:49:26.065Z,40.03
2023-02-12T16:52:01.410Z,30.73
2023-02-12T16:54:31.969Z,25.45
2023-02-12T16:57:02.544Z,21.95
2023-02-12T16:59:31.040Z,20.55
2023-02-12T17:02:01.629Z,18.25
2023-02-12T17:04:29.897Z,17.13
2023-02-12T17:06:58.865Z,15.77
2023-02-12T17:09:29.665Z,14.90
2023-02-12T17:11:58.009Z,14.68
2023-02-12T17:14:27.688Z,12.98
2023-02-12T17:16:56.061Z,13.07
2023-02-12T17:19:24.273Z,12.70
2023-02-12T17:21:53.027Z,11.88
2023-02-12T17:24:24.210Z,11.50
2023-02-12T17:26:53.218Z,11.18
2023-02-12T17:29:23.342Z,11.55
2023-02-12T17:31:55.299Z,12.50
2023-02-12T17:34:24.209Z,11.85
2023-02-12T17:36:52.556Z,10.98
2023-02-12T17:39:21.142Z,11.13
2023-02-12T17:41:49.698Z,11.23
2023-02-12T17:44:18.135Z,11.43
2023-02-12T17:46:46.314Z,11.35
2023-02-12T17:49:16.119Z,11.18
2023-02-12T17:51:44.402Z,11.65
2023-02-12T17:54:13.933Z,11.73
2023-02-12T17:56:45.350Z,12.18
2023-02-12T17:59:13.583Z,11.55
2023-02-12T18:01:42.031Z,13.27
2023-02-12T18:04:10.289Z,12.40
2023-02-12T18:06:39.978Z,12.82
2023-02-12T18:09:08.323Z,14.52
2023-02-12T18:11:37.982Z,13.55
2023-02-12T18:14:06.338Z,12.93
2023-02-12T18:16:36.705Z,14.13
2023-02-12T18:19:05.970Z,15.30
2023-02-12T18:21:35.154Z,14.93
2023-02-12T18:24:08.645Z,14.60
2023-02-12T18:26:36.962Z,14.85
2023-02-12T18:29:05.215Z,14.23
2023-02-12T18:31:33.660Z,14.88
2023-02-12T18:34:02.227Z,14.75
2023-02-12T18:36:30.611Z,15.50
2023-02-12T18:39:00.942Z,15.02
2023-02-12T18:41:32.885Z,14.82
2023-02-12T18:44:01.556Z,13.85
2023-02-12T18:46:31.667Z,13.80
2023-02-12T18:49:00.428Z,14.18
2023-02-12T18:51:30.914Z,13.88
2023-02-12T18:54:06.519Z,13.52
2023-02-12T18:56:40.085Z,14.48
2023-02-12T18:59:09.396Z,13.70
2023-02-12T19:01:37.792Z,13.77
2023-02-12T19:04:08.018Z,13.70
2023-02-12T19:06:41.113Z,13.13
2023-02-12T19:09:10.387Z,14.00
2023-02-12T19:11:40.067Z,14.05
2023-02-12T19:14:08.271Z,15.07
2023-02-12T19:16:36.712Z,15.63
2023-02-12T19:19:04.988Z,15.48
2023-02-12T19:21:33.855Z,16.02
2023-02-12T19:24:03.801Z,16.17
2023-02-12T19:26:34.687Z,16.65
2023-02-12T19:29:05.610Z,16.50
2023-02-12T19:31:36.223Z,16.58
2023-02-12T19:34:08.387Z,17.03
2023-02-12T19:36:37.772Z,17.23
2023-02-12T19:39:06.941Z,17.17
2023-02-12T19:41:40.835Z,16.05
2023-02-12T19:44:13.346Z,17.55
2023-02-12T19:46:42.146Z,16.48
2023-02-12T19:49:15.246Z,16.17
2023-02-12T19:51:44.332Z,15.35
2023-02-12T19:54:14.835Z,15.48
2023-02-12T19:56:43.324Z,15.10
2023-02-12T19:59:15.224Z,16.40
2023-02-12T20:01:43.872Z,14.88
2023-02-12T20:04:13.394Z,15.20
2023-02-12T20:06:42.517Z,15.70
2023-02-12T20:09:12.651Z,15.15
2023-02-12T20:11:41.161Z,15.27
2023-02-12T20:14:12.249Z,15.55
2023-02-12T20:16:44.665Z,14.75
2023-02-12T20:19:15.334Z,15.38
2023-02-12T20:21:44.496Z,15.60
2023-02-12T20:24:12.903Z,15.90
2023-02-12T20:26:41.075Z,15.98
2023-02-12T20:29:09.372Z,19.42
2023-02-12T20:31:38.924Z,52.03
2023-02-12T20:34:13.366Z,111.93
2023-02-12T20:36:43.759Z,65.30
2023-02-12T20:39:14.035Z,54.47
2023-02-12T20:41:42.890Z,51.00
2023-02-12T20:44:14.389Z,39.72
2023-02-12T20:46:44.913Z,88.10
2023-02-12T20:49:16.452Z,51.23
2023-02-12T20:51:45.600Z,76.80
2023-02-12T20:54:14.001Z,107.70
2023-02-12T20:56:42.422Z,126.43
2023-02-12T20:59:12.476Z,166.10
2023-02-12T21:01:43.124Z,110.65
2023-02-12T21:04:13.628Z,73.57
2023-02-12T21:06:43.627Z,56.03
2023-02-12T21:09:13.825Z,46.10
2023-02-12T21:11:45.237Z,40.45
2023-02-12T21:14:23.930Z,32.47
2023-02-12T21:16:54.087Z,28.60
2023-02-12T21:19:22.580Z,27.20
2023-02-12T21:21:52.507Z,25.40
2023-02-12T21:24:22.820Z,23.05
2023-02-12T21:26:51.931Z,21.52
2023-02-12T21:29:21.222Z,20.15
2023-02-12T21:31:51.245Z,19.55
2023-02-12T21:34:22.597Z,18.52
2023-02-12T21:36:54.513Z,17.33
2023-02-12T21:39:27.570Z,16.73
2023-02-12T21:41:58.117Z,15.88
2023-02-12T21:44:27.098Z,15.45
2023-02-12T21:46:55.818Z,15.38
2023-02-12T21:49:27.422Z,13.60
2023-02-12T21:51:58.856Z,13.80
2023-02-12T21:54:27.249Z,14.07
2023-02-12T21:56:56.260Z,14.25
2023-02-12T21:59:24.935Z,14.57
2023-02-12T22:01:56.214Z,14.73
2023-02-12T22:04:24.515Z,13.30
2023-02-12T22:06:54.051Z,13.25
2023-02-12T22:09:24.579Z,13.07
2023-02-12T22:11:53.181Z,12.90
2023-02-12T22:14:22.456Z,12.88
2023-02-12T22:16:51.010Z,12.65
2023-02-12T22:19:19.307Z,12.15
2023-02-12T22:21:47.634Z,12.30
2023-02-12T22:24:17.441Z,12.00
2023-02-12T22:26:47.058Z,11.55
2023-02-12T22:29:17.065Z,11.27
2023-02-12T22:31:46.945Z,11.15
2023-02-12T22:34:17.712Z,10.70
2023-02-12T22:36:49.391Z,9.82
2023-02-12T22:39:18.569Z,10.55
2023-02-12T22:41:48.211Z,9.35
2023-02-12T22:44:20.759Z,10.05
2023-02-12T22:46:49.782Z,9.98
2023-02-12T22:49:18.026Z,9.30
2023-02-12T22:51:46.414Z,9.43
2023-02-12T22:54:15.914Z,9.55
2023-02-12T22:56:44.421Z,8.75
2023-02-12T22:59:14.397Z,9.18
2023-02-12T23:01:43.412Z,9.05
2023-02-12T23:04:15.694Z,8.32
2023-02-12T23:06:44.766Z,8.35
2023-02-12T23:09:15.447Z,7.63
2023-02-12T23:11:43.920Z,8.40
2023-02-12T23:14:13.629Z,7.82
2023-02-12T23:16:41.862Z,8.05
2023-02-12T23:19:13.599Z,7.97
2023-02-12T23:21:41.938Z,7.72
2023-02-12T23:24:14.425Z,8.13
2023-02-12T23:26:42.749Z,7.88
2023-02-12T23:29:11.173Z,8.07
2023-02-12T23:31:40.870Z,7.97
2023-02-12T23:34:09.252Z,8.60
2023-02-12T23:36:37.667Z,7.85
2023-02-12T23:39:06.210Z,7.95
2023-02-12T23:41:34.571Z,7.85
2023-02-12T23:44:02.828Z,7.93
2023-02-12T23:46:31.210Z,8.27
2023-02-12T23:49:00.740Z,7.53
2023-02-12T23:51:29.045Z,7.97
2023-02-12T23:53:57.429Z,8.70
2023-02-12T23:56:25.830Z,8.57
2023-02-12T23:58:55.952Z,8.40
